Portada
METAR-TAF:

METAR-TAF

Aeroports :

Béchar, Algèria

latitud: 31-37N, longitud: 002-14W, altitud: 773 m

Observació

L'informe es va fer fa 10 minuts, a les 13:00 UTC
Vent 10 kt del Sud
Temperatura 32°C
Humitat 24%
Pressió 1014 hPa
Visibilitat: 2500 m
Núvols disperses a una alçada de 3300 ft
Núvols disperses a una alçada de 10000 ft
Pols estès

METAR: DAOR 301300Z 19010KT 2500 DU SCT033 SCT100 32/09 Q1014

Hora: 14:10 (13:10 UTC)

Pronòstic

L'informe es va fer fa 5 hores i 10 minuts, a les 08:00 UTC
Pronòstic vàlid del 30 a les 09 UTC al 30 a les 18 UTC
Vent 2 kt amb direcció variable
Visibilitat: 3000 m
Núvols disperses a una alçada de 3300 ft
Núvols disperses a una alçada de 10000 ft
Pols estès
Temporalment
l' 30 a les 09 UTC al 30 a les 12 UTC
Escasses núvols a una alçada de 3000 ft, Cumulonimbus.
Evolucionant progressivament
l' 30 a les 10 UTC al 30 a les 12 UTC
Vent 10 kt del Sud-Est

TAF: DAOR 300800Z 3009/3018 VRB02KT 3000 DU SCT033 SCT100 TEMPO 3009/3012 FEW030CB BECMG 3010/3012 14010KT

Observacions i pronòstics meteorològics de més de 4000 aeroports (METAR i TAF).

Les estacions disponibles són els punts grocs i vermells al mapa.

Posi el ratolí al punt desitjat per veure el nom de l'estació.

Feu clic per veure les observacions i els pronòstics meteorològics.

Per canviar el mapa: feu clic els botons verds amb una creu de color negre per apropar; al botó verd amb un guió per allunyar la imatge; o en les fletxes verdes per a mapes adjacents.


METAR-TAF: